createdAt,value
2019-04-20T00:00:06.681Z,40.91
2019-04-20T00:02:44.069Z,41.08
2019-04-20T00:05:16.987Z,40.98
2019-04-20T00:07:52.162Z,41.08
2019-04-20T00:10:27.260Z,41.00
2019-04-20T00:13:11.411Z,41.42
2019-04-20T00:15:38.930Z,41.71
2019-04-20T00:18:15.039Z,42.06
2019-04-20T00:21:00.367Z,41.76
2019-04-20T00:23:45.052Z,41.98
2019-04-20T00:27:03.638Z,41.71
2019-04-20T00:29:25.406Z,41.99
2019-04-20T00:31:56.652Z,42.44
2019-04-20T00:34:26.718Z,42.69
2019-04-20T00:36:54.244Z,42.56
2019-04-20T00:39:30.353Z,42.52
2019-04-20T00:42:08.013Z,42.66
2019-04-20T00:44:43.841Z,42.57
2019-04-20T00:47:30.723Z,42.32
2019-04-20T00:50:00.889Z,42.45
2019-04-20T00:52:45.212Z,42.58
2019-04-20T00:55:02.391Z,42.54
2019-04-20T00:57:46.610Z,42.72
2019-04-20T01:00:33.897Z,42.84
2019-04-20T01:03:11.059Z,43.02
2019-04-20T01:05:53.029Z,43.15
2019-04-20T01:08:21.636Z,43.00
2019-04-20T01:11:00.731Z,43.09
2019-04-20T01:13:42.187Z,43.31
2019-04-20T01:16:26.803Z,43.72
2019-04-20T01:18:48.262Z,43.58
2019-04-20T01:21:28.827Z,43.67
2019-04-20T01:24:04.649Z,43.86
2019-04-20T01:26:43.509Z,43.97
2019-04-20T01:29:21.754Z,44.21
2019-04-20T01:32:00.722Z,44.03
2019-04-20T01:34:39.325Z,44.22
2019-04-20T01:37:14.458Z,44.19
2019-04-20T01:39:41.847Z,44.51
2019-04-20T01:42:13.046Z,44.68
2019-04-20T01:44:50.802Z,44.90
2019-04-20T01:47:32.086Z,44.79
2019-04-20T01:50:08.579Z,44.97
2019-04-20T01:52:50.851Z,45.07
2019-04-20T01:55:44.032Z,45.07
2019-04-20T01:58:30.327Z,45.38
2019-04-20T02:01:21.034Z,45.63
2019-04-20T02:03:56.845Z,45.98
2019-04-20T02:06:31.809Z,46.29
2019-04-20T02:09:16.686Z,46.00
2019-04-20T02:11:47.392Z,46.35
2019-04-20T02:14:27.326Z,46.53
2019-04-20T02:17:06.956Z,46.51
2019-04-20T02:20:04.603Z,46.64
2019-04-20T02:22:38.346Z,46.85
2019-04-20T02:24:55.132Z,46.75
2019-04-20T02:27:36.797Z,47.09
2019-04-20T02:42:20.331Z,47.52
2019-04-20T02:44:44.269Z,47.49
2019-04-20T02:47:21.619Z,47.50
2019-04-20T02:50:15.275Z,47.33
2019-04-20T02:57:55.186Z,47.21
2019-04-20T03:00:19.790Z,47.16
2019-04-20T03:02:46.048Z,47.20
2019-04-20T03:05:25.641Z,47.17
2019-04-20T03:08:02.862Z,46.98
2019-04-20T03:10:46.439Z,46.99
2019-04-20T03:13:18.622Z,46.83
2019-04-20T03:15:56.474Z,46.97
2019-04-20T03:18:32.123Z,46.58
2019-04-20T03:21:13.978Z,46.65
2019-04-20T03:23:54.250Z,46.48
2019-04-20T03:26:37.922Z,46.75
2019-04-20T03:29:30.605Z,46.73
2019-04-20T03:32:38.343Z,46.45
2019-04-20T03:37:38.205Z,46.86
2019-04-20T03:40:16.875Z,46.74
2019-04-20T03:42:33.092Z,46.84
2019-04-20T03:45:14.401Z,47.60
2019-04-20T03:48:03.034Z,48.17
2019-04-20T03:50:46.243Z,47.34
2019-04-20T03:53:27.794Z,47.23
2019-04-20T03:56:30.991Z,47.59
2019-04-20T03:59:08.145Z,47.76
2019-04-20T04:02:14.863Z,46.87
2019-04-20T04:04:54.570Z,47.10
2019-04-20T04:07:22.868Z,46.61
2019-04-20T04:10:08.437Z,46.44
2019-04-20T04:13:14.733Z,46.58
2019-04-20T04:15:57.492Z,46.11
2019-04-20T04:18:36.825Z,46.33
2019-04-20T04:21:10.002Z,45.60
2019-04-20T04:23:58.902Z,46.41
2019-04-20T04:26:37.820Z,46.91
2019-04-20T04:29:30.169Z,46.76
2019-04-20T04:32:14.122Z,46.46
2019-04-20T04:34:45.894Z,44.36
2019-04-20T04:37:17.624Z,43.44
2019-04-20T04:39:56.042Z,42.48
2019-04-20T04:42:30.379Z,41.90
2019-04-20T04:44:53.649Z,41.28
2019-04-20T04:47:26.275Z,41.15
2019-04-20T04:50:10.987Z,41.33
2019-04-20T04:52:53.690Z,41.09
2019-04-20T04:55:34.141Z,40.41
2019-04-20T04:57:58.436Z,40.46
2019-04-20T05:00:34.718Z,40.48
2019-04-20T05:03:26.686Z,40.92
2019-04-20T05:06:14.860Z,40.47
2019-04-20T05:08:42.008Z,40.05
2019-04-20T05:11:11.050Z,40.00
2019-04-20T05:13:54.646Z,39.98
2019-04-20T05:16:47.066Z,39.68
2019-04-20T05:19:26.096Z,39.35
2019-04-20T05:22:17.773Z,39.63
2019-04-20T05:25:05.748Z,39.67
2019-04-20T05:27:56.253Z,39.02
2019-04-20T05:30:11.870Z,38.93
2019-04-20T05:32:56.111Z,39.77
2019-04-20T05:35:44.133Z,38.02
2019-04-20T05:38:37.173Z,37.39
2019-04-20T05:41:11.829Z,37.06
2019-04-20T05:44:04.686Z,36.65
2019-04-20T05:46:59.924Z,36.43
2019-04-20T05:49:34.568Z,36.09
2019-04-20T05:52:36.193Z,36.43
2019-04-20T05:55:23.688Z,37.38
2019-04-20T05:58:11.222Z,35.32
2019-04-20T06:01:00.217Z,34.88
2019-04-20T06:03:37.149Z,34.48
2019-04-20T06:06:15.176Z,35.16
2019-04-20T06:09:08.569Z,34.77
2019-04-20T06:11:56.253Z,34.09
2019-04-20T06:14:39.464Z,33.98
2019-04-20T06:17:31.680Z,35.64
2019-04-20T06:20:15.564Z,33.90
2019-04-20T06:22:59.956Z,33.11
2019-04-20T06:26:07.565Z,32.09
2019-04-20T06:28:23.358Z,33.06
2019-04-20T06:30:52.620Z,31.53
2019-04-20T06:36:57.124Z,31.01
2019-04-20T06:39:40.716Z,30.87
2019-04-20T06:42:15.121Z,31.12
2019-04-20T06:44:50.814Z,30.85
2019-04-20T06:47:47.344Z,31.05
2019-04-20T06:50:01.780Z,30.48
2019-04-20T06:53:20.520Z,39.51
2019-04-20T06:55:59.985Z,29.89
2019-04-20T06:58:39.030Z,29.56
2019-04-20T07:01:02.152Z,29.46
2019-04-20T07:03:56.446Z,29.22
2019-04-20T07:06:32.130Z,29.53
2019-04-20T07:08:57.396Z,28.27
2019-04-20T07:11:23.252Z,29.09
2019-04-20T07:13:43.510Z,28.93
2019-04-20T07:16:36.375Z,28.08
2019-04-20T07:19:18.571Z,27.56
2019-04-20T07:24:56.656Z,27.39
2019-04-20T07:27:30.725Z,27.47
2019-04-20T07:30:07.378Z,27.26
2019-04-20T07:32:51.148Z,28.41
2019-04-20T07:35:14.212Z,27.25
2019-04-20T07:40:28.992Z,26.29
2019-04-20T07:43:19.739Z,26.93
2019-04-20T07:45:46.614Z,26.59
2019-04-20T07:48:25.779Z,25.87
2019-04-20T07:50:40.925Z,25.44
2019-04-20T07:53:24.612Z,25.57
2019-04-20T07:56:04.701Z,25.20
2019-04-20T07:58:25.060Z,24.24
2019-04-20T08:01:23.744Z,23.90
2019-04-20T08:04:06.640Z,23.96
2019-04-20T08:06:28.909Z,24.22
2019-04-20T08:09:11.616Z,23.55
2019-04-20T08:11:56.534Z,23.95
2019-04-20T08:14:31.832Z,24.45
2019-04-20T08:17:14.079Z,24.93
2019-04-20T08:19:41.003Z,22.93
2019-04-20T08:22:19.782Z,22.09
2019-04-20T08:24:48.458Z,22.70
2019-04-20T08:27:14.419Z,22.19
2019-04-20T08:30:09.085Z,22.37
2019-04-20T08:33:05.221Z,22.57
2019-04-20T08:35:52.589Z,22.06
2019-04-20T08:38:52.910Z,22.61
2019-04-20T08:41:00.298Z,22.73
2019-04-20T08:43:53.536Z,22.92
2019-04-20T08:46:17.781Z,23.84
2019-04-20T08:48:50.855Z,22.37
2019-04-20T08:51:26.065Z,22.30
2019-04-20T08:53:57.068Z,21.56
2019-04-20T08:56:31.163Z,21.47
2019-04-20T08:58:52.828Z,21.24
2019-04-20T09:01:30.884Z,21.42
2019-04-20T09:04:09.804Z,22.92
2019-04-20T09:06:54.541Z,21.29
2019-04-20T09:09:44.285Z,20.60
2019-04-20T09:12:06.395Z,20.42
2019-04-20T09:14:23.745Z,21.12
2019-04-20T09:17:06.839Z,20.93
2019-04-20T09:19:47.037Z,20.88
2019-04-20T09:22:38.785Z,20.35
2019-04-20T09:25:42.711Z,20.07
2019-04-20T09:27:50.765Z,19.60
2019-04-20T09:30:36.394Z,20.52
2019-04-20T09:33:14.586Z,20.29
2019-04-20T09:35:48.655Z,21.40
2019-04-20T09:38:21.702Z,19.84
2019-04-20T09:40:58.446Z,19.59
2019-04-20T09:43:34.748Z,19.75
2019-04-20T09:46:08.928Z,21.87
2019-04-20T09:48:53.569Z,19.27
2019-04-20T09:51:38.882Z,18.68
2019-04-20T09:54:05.306Z,19.21
2019-04-20T09:56:49.681Z,19.41
2019-04-20T09:59:22.060Z,18.85
2019-04-20T10:01:45.239Z,18.63
2019-04-20T10:04:15.323Z,19.68
2019-04-20T10:06:49.702Z,19.74
2019-04-20T10:09:29.458Z,19.20
2019-04-20T10:11:57.776Z,19.20
2019-04-20T10:14:31.080Z,19.73
2019-04-20T10:17:05.719Z,19.78
2019-04-20T10:19:40.096Z,19.28
2019-04-20T10:22:14.906Z,19.48
2019-04-20T10:24:50.335Z,20.24
2019-04-20T10:27:24.215Z,18.82
2019-04-20T10:30:00.744Z,18.05
2019-04-20T10:32:39.155Z,18.33
2019-04-20T10:35:08.989Z,19.35
2019-04-20T10:37:47.238Z,18.86
2019-04-20T10:40:35.834Z,19.17
2019-04-20T10:42:59.398Z,18.91
2019-04-20T10:45:30.882Z,17.90
2019-04-20T10:48:05.425Z,21.17
2019-04-20T10:50:39.020Z,19.72
2019-04-20T10:53:13.997Z,20.67
2019-04-20T10:55:47.427Z,19.31
2019-04-20T10:58:21.875Z,19.37
2019-04-20T11:00:55.744Z,20.61
2019-04-20T11:03:29.097Z,21.10
2019-04-20T11:06:02.812Z,18.84
2019-04-20T11:08:36.194Z,19.09
2019-04-20T11:11:16.405Z,19.49
2019-04-20T11:13:47.643Z,19.71
2019-04-20T11:16:26.600Z,20.36
2019-04-20T11:19:03.271Z,18.94
2019-04-20T11:21:36.943Z,18.83
2019-04-20T11:24:12.145Z,18.69
2019-04-20T11:26:46.862Z,19.06
2019-04-20T11:29:24.180Z,18.49
2019-04-20T11:31:58.192Z,17.85
2019-04-20T11:34:44.200Z,17.72
2019-04-20T11:37:19.345Z,18.67
2019-04-20T11:39:52.898Z,18.78
2019-04-20T11:42:26.173Z,17.58
2019-04-20T11:45:00.411Z,18.24
2019-04-20T11:48:11.641Z,17.86
2019-04-20T11:50:58.885Z,18.86
2019-04-20T11:53:34.807Z,17.86
2019-04-20T11:56:15.924Z,17.32
2019-04-20T11:58:43.183Z,19.17
2019-04-20T12:01:38.132Z,17.95
2019-04-20T12:04:24.907Z,19.28
2019-04-20T12:06:44.938Z,18.89
2019-04-20T12:09:19.047Z,19.00
2019-04-20T12:12:04.098Z,17.81
2019-04-20T12:14:28.465Z,19.75
2019-04-20T12:17:01.827Z,18.57
2019-04-20T12:19:36.295Z,20.20
2019-04-20T12:22:11.896Z,19.40
2019-04-20T12:24:47.918Z,19.42
2019-04-20T12:27:22.857Z,19.02
2019-04-20T12:29:57.552Z,18.98
2019-04-20T12:32:36.417Z,18.78
2019-04-20T12:35:08.603Z,19.94
2019-04-20T12:37:43.114Z,18.10
2019-04-20T12:40:19.929Z,17.66
2019-04-20T12:42:54.935Z,17.65
2019-04-20T12:45:42.423Z,16.35
2019-04-20T12:48:11.460Z,17.86
2019-04-20T12:50:47.800Z,18.30
2019-04-20T12:53:26.498Z,17.59
2019-04-20T12:56:04.354Z,17.19
2019-04-20T12:58:42.985Z,18.72
2019-04-20T13:01:23.724Z,18.64
2019-04-20T13:03:57.761Z,18.22
2019-04-20T13:06:32.146Z,18.64
2019-04-20T13:09:12.753Z,18.49
2019-04-20T13:12:09.943Z,18.03
2019-04-20T13:16:00.540Z,18.58
2019-04-20T13:18:47.517Z,19.33
2019-04-20T13:21:22.982Z,20.33
2019-04-20T13:23:56.640Z,20.50
2019-04-20T13:26:30.985Z,20.34
2019-04-20T13:29:06.776Z,19.97
2019-04-20T13:31:51.974Z,20.22
2019-04-20T13:34:19.906Z,20.17
2019-04-20T13:36:56.343Z,18.71
2019-04-20T13:39:30.965Z,18.69
2019-04-20T13:42:12.092Z,19.22
2019-04-20T13:44:39.197Z,18.79
2019-04-20T13:47:12.764Z,19.05
2019-04-20T13:49:47.087Z,19.49
2019-04-20T13:52:20.668Z,18.37
2019-04-20T13:54:55.908Z,18.26
2019-04-20T13:57:47.153Z,17.32
2019-04-20T14:00:55.544Z,16.63
2019-04-20T14:03:32.275Z,17.22
2019-04-20T14:06:06.849Z,17.34
2019-04-20T14:08:41.213Z,18.02
2019-04-20T14:11:15.606Z,17.74
2019-04-20T14:13:56.391Z,17.37
2019-04-20T14:16:25.159Z,18.50
2019-04-20T14:18:58.780Z,18.29
2019-04-20T14:21:32.628Z,19.04
2019-04-20T14:24:06.684Z,18.47
2019-04-20T14:26:42.121Z,18.84
2019-04-20T14:29:16.960Z,19.21
2019-04-20T14:31:50.427Z,19.98
2019-04-20T14:34:24.702Z,19.54
2019-04-20T14:37:00.279Z,19.99
2019-04-20T14:39:36.289Z,20.29
2019-04-20T14:42:09.976Z,20.49
2019-04-20T14:44:45.858Z,21.00
2019-04-20T14:47:19.279Z,20.44
2019-04-20T14:49:55.168Z,20.23
2019-04-20T14:52:29.440Z,20.68
2019-04-20T14:55:04.209Z,20.51
2019-04-20T14:57:37.457Z,20.68
2019-04-20T15:00:27.791Z,20.89
2019-04-20T15:03:19.860Z,20.59
2019-04-20T15:05:57.705Z,21.73
2019-04-20T15:08:32.401Z,21.36
2019-04-20T15:11:07.199Z,21.28
2019-04-20T15:13:40.753Z,21.98
2019-04-20T15:16:15.017Z,21.18
2019-04-20T15:19:05.641Z,22.34
2019-04-20T15:21:39.681Z,22.33
2019-04-20T15:24:13.403Z,21.71
2019-04-20T15:26:46.709Z,21.62
2019-04-20T15:29:22.135Z,21.31
2019-04-20T15:31:56.501Z,22.19
2019-04-20T15:34:30.914Z,22.37
2019-04-20T15:37:07.612Z,22.01
2019-04-20T15:39:41.150Z,22.42
2019-04-20T15:42:15.085Z,22.99
2019-04-20T15:44:58.874Z,23.17
2019-04-20T15:47:34.456Z,22.84
2019-04-20T15:50:09.744Z,23.41
2019-04-20T15:52:50.909Z,23.34
2019-04-20T15:55:29.611Z,23.34
2019-04-20T15:58:04.232Z,23.59
2019-04-20T16:00:38.378Z,23.48
2019-04-20T16:03:27.592Z,23.46
2019-04-20T16:06:39.191Z,23.55
2019-04-20T16:09:35.873Z,23.61
2019-04-20T16:12:17.254Z,23.52
2019-04-20T16:14:55.578Z,23.91
2019-04-20T16:17:36.363Z,23.78
2019-04-20T16:20:10.311Z,23.36
2019-04-20T16:22:40.550Z,22.77
2019-04-20T16:25:43.581Z,22.80
2019-04-20T16:28:17.373Z,22.74
2019-04-20T16:30:51.691Z,22.31
2019-04-20T16:33:26.062Z,22.38
2019-04-20T16:36:00.635Z,22.59
2019-04-20T16:38:35.087Z,23.01
2019-04-20T16:41:08.585Z,23.19
2019-04-20T16:43:44.717Z,23.21
2019-04-20T16:46:18.812Z,22.98
2019-04-20T16:48:52.659Z,23.50
2019-04-20T16:51:26.906Z,23.29
2019-04-20T16:54:01.539Z,23.48
2019-04-20T16:56:35.094Z,23.87
2019-04-20T16:59:10.327Z,23.81
2019-04-20T17:01:44.492Z,24.41
2019-04-20T17:04:22.037Z,24.22
2019-04-20T17:07:31.170Z,24.79
2019-04-20T17:10:04.596Z,23.54
2019-04-20T17:12:38.044Z,24.09
2019-04-20T17:15:15.833Z,23.78
2019-04-20T17:17:51.143Z,24.40
2019-04-20T17:20:25.742Z,24.04
2019-04-20T17:23:00.241Z,23.66
2019-04-20T17:25:34.372Z,23.95
2019-04-20T17:28:30.822Z,24.16
2019-04-20T17:31:39.702Z,24.05
2019-04-20T17:34:29.737Z,24.03
2019-04-20T17:36:50.633Z,24.64
2019-04-20T17:39:33.933Z,24.30
2019-04-20T17:42:16.849Z,24.48
2019-04-20T17:44:50.281Z,25.74
2019-04-20T17:47:32.917Z,26.27
2019-04-20T17:50:07.925Z,26.59
2019-04-20T17:52:44.854Z,27.12
2019-04-20T17:55:03.353Z,27.34
2019-04-20T17:57:37.310Z,27.77
2019-04-20T18:00:22.552Z,28.38
2019-04-20T18:03:12.338Z,28.76
2019-04-20T18:05:58.496Z,29.14
2019-04-20T18:08:32.159Z,29.51
2019-04-20T18:10:58.563Z,29.82
2019-04-20T18:13:28.563Z,29.93
2019-04-20T18:16:22.463Z,29.92
2019-04-20T18:19:05.654Z,29.98
2019-04-20T18:21:49.705Z,29.69
2019-04-20T18:24:50.720Z,29.80
2019-04-20T18:27:24.518Z,29.80
2019-04-20T18:29:53.443Z,29.91
2019-04-20T18:32:31.544Z,30.28
2019-04-20T18:35:12.200Z,30.71
2019-04-20T18:37:53.564Z,31.15
2019-04-20T18:40:29.124Z,31.04
2019-04-20T18:43:06.383Z,31.10
2019-04-20T18:45:52.738Z,31.44
2019-04-20T18:48:24.966Z,31.56
2019-04-20T18:50:44.231Z,31.64
2019-04-20T18:53:23.838Z,31.89
2019-04-20T18:55:55.315Z,31.88
2019-04-20T18:58:26.939Z,31.77
2019-04-20T19:01:01.152Z,31.82
2019-04-20T19:03:41.842Z,31.93
2019-04-20T19:06:11.235Z,31.78
2019-04-20T19:08:49.911Z,32.22
2019-04-20T19:11:23.223Z,32.63
2019-04-20T19:14:23.643Z,32.93
2019-04-20T19:17:05.623Z,32.83
2019-04-20T19:19:39.020Z,33.05
2019-04-20T19:22:07.926Z,34.09
2019-04-20T19:24:43.603Z,36.17
2019-04-20T19:27:37.847Z,36.37
2019-04-20T19:30:15.392Z,36.18
2019-04-20T19:32:54.484Z,36.01
2019-04-20T19:35:30.859Z,35.99
2019-04-20T19:38:01.465Z,35.83
2019-04-20T19:40:38.547Z,36.32
2019-04-20T19:43:13.185Z,34.94
2019-04-20T19:46:07.310Z,35.00
2019-04-20T19:48:24.091Z,35.09
2019-04-20T19:51:10.113Z,35.25
2019-04-20T19:53:44.227Z,35.38
2019-04-20T19:56:07.723Z,35.22
2019-04-20T19:58:45.640Z,35.52
2019-04-20T20:01:11.519Z,35.59
2019-04-20T20:03:50.623Z,35.54
2019-04-20T20:06:29.259Z,35.62
2019-04-20T20:09:04.170Z,35.85
2019-04-20T20:11:39.165Z,35.97
2019-04-20T20:14:13.071Z,35.79
2019-04-20T20:17:06.921Z,35.95
2019-04-20T20:19:35.529Z,36.03
2019-04-20T20:22:11.193Z,35.98
2019-04-20T20:24:31.387Z,35.85
2019-04-20T20:27:11.677Z,36.16
2019-04-20T20:29:47.260Z,36.25
2019-04-20T20:32:23.385Z,36.39
2019-04-20T20:34:56.217Z,36.65
2019-04-20T20:37:34.696Z,36.69
2019-04-20T20:40:13.566Z,36.93
2019-04-20T20:42:53.067Z,37.06
2019-04-20T20:45:22.695Z,37.70
2019-04-20T20:48:04.001Z,37.52
2019-04-20T20:50:42.067Z,37.83
2019-04-20T20:53:10.258Z,37.90
2019-04-20T20:55:40.949Z,37.91
2019-04-20T20:58:14.597Z,37.68
2019-04-20T21:00:54.385Z,38.05
2019-04-20T21:03:24.680Z,37.84
2019-04-20T21:05:53.626Z,38.50
2019-04-20T21:08:26.965Z,38.10
2019-04-20T21:11:00.240Z,38.17
2019-04-20T21:13:39.286Z,38.31
2019-04-20T21:16:16.372Z,38.35
2019-04-20T21:19:01.048Z,38.64
2019-04-20T21:21:33.519Z,38.71
2019-04-20T21:24:04.033Z,38.82
2019-04-20T21:26:38.718Z,38.86
2019-04-20T21:29:08.115Z,39.03
2019-04-20T21:31:43.454Z,39.19
2019-04-20T21:34:19.938Z,39.21
2019-04-20T21:36:55.345Z,39.36
2019-04-20T21:39:37.332Z,39.63
2019-04-20T21:42:09.443Z,39.76
2019-04-20T21:44:41.459Z,40.02
2019-04-20T21:47:15.618Z,39.79
2019-04-20T21:49:57.837Z,40.13
2019-04-20T21:52:26.965Z,39.79
2019-04-20T21:54:56.285Z,40.49
2019-04-20T21:57:32.587Z,40.22
2019-04-20T22:00:10.071Z,40.45
2019-04-20T22:02:48.862Z,40.97
2019-04-20T22:05:15.879Z,40.98
2019-04-20T22:07:50.345Z,40.81
2019-04-20T22:10:27.904Z,41.58
2019-04-20T22:13:01.094Z,41.45
2019-04-20T22:15:36.699Z,41.18
2019-04-20T22:18:12.571Z,41.41
2019-04-20T22:21:01.703Z,41.44
2019-04-20T22:23:41.768Z,41.53
2019-04-20T22:26:08.620Z,41.49
2019-04-20T22:28:29.831Z,41.74
2019-04-20T22:31:04.214Z,41.90
2019-04-20T22:33:41.194Z,42.20
2019-04-20T22:36:14.571Z,42.58
2019-04-20T22:39:09.475Z,42.67
2019-04-20T22:41:53.504Z,44.24
2019-04-20T22:44:28.388Z,43.73
2019-04-20T22:47:00.623Z,44.04
2019-04-20T22:49:48.559Z,44.75
2019-04-20T22:52:26.617Z,44.77
2019-04-20T22:55:08.067Z,44.31
2019-04-20T22:57:38.467Z,44.91
2019-04-20T23:00:03.442Z,44.96
2019-04-20T23:02:33.198Z,45.17
2019-04-20T23:05:06.979Z,45.26
2019-04-20T23:07:41.019Z,45.43
2019-04-20T23:10:20.281Z,45.77
2019-04-20T23:12:54.235Z,45.70
2019-04-20T23:15:25.914Z,45.39
2019-04-20T23:18:00.081Z,45.61
2019-04-20T23:20:36.099Z,45.68
2019-04-20T23:23:11.029Z,45.25
2019-04-20T23:25:45.037Z,45.09
2019-04-20T23:28:20.862Z,44.84
2019-04-20T23:31:00.090Z,44.95
2019-04-20T23:33:29.857Z,44.81
2019-04-20T23:36:05.083Z,45.17
2019-04-20T23:38:44.293Z,45.00
2019-04-20T23:41:15.446Z,45.63
2019-04-20T23:44:12.610Z,45.71
2019-04-20T23:47:18.367Z,45.72
2019-04-20T23:50:12.333Z,46.17
2019-04-20T23:52:53.926Z,45.73
2019-04-20T23:55:11.976Z,45.89
2019-04-20T23:57:56.205Z,46.29
